SWR95H LSZH-LIMC
Flight info
| Callsign | SWR95H |
|---|---|
| Flight time | 0h 30m |
| Altitude | 19000 |
| Route | VEBIT T53 GERSA N850 DEGAD Z424 RIXUV |
| Aircraft | E190/M-SDE3GILORVW/S |
Departure
| Time | 2026-04-26 00:31 |
|---|---|
| Airport | Zürich Airport (LSZH) |
Arrival
| Time | 2026-04-26 01:01 |
|---|---|
| Airport | Milan Malpensa International Airport (LIMC) |
| Time | Latitude | Longitude | Altitude | Speed | Heading |
|---|---|---|---|---|---|
| 2026-04-25 23:49 | 47.45184 | 8.55751 | 1395 ft | 0 kts | 186° |
| 2026-04-26 00:19 | 47.45193 | 8.55754 | 1395 ft | 2 kts | 200° |
| 2026-04-26 00:20 | 47.45208 | 8.55757 | 1396 ft | 2 kts | 182° |
| 2026-04-26 00:20 | 47.45223 | 8.55760 | 1396 ft | 2 kts | 200° |
| 2026-04-26 00:20 | 47.45237 | 8.55770 | 1397 ft | 2 kts | 216° |
| 2026-04-26 00:20 | 47.45247 | 8.55785 | 1397 ft | 2 kts | 233° |
| 2026-04-26 00:21 | 47.45255 | 8.55804 | 1397 ft | 2 kts | 251° |
| 2026-04-26 00:21 | 47.45258 | 8.55826 | 1398 ft | 2 kts | 268° |
| 2026-04-26 00:21 | 47.45258 | 8.55838 | 1398 ft | 1 kts | 278° |
| 2026-04-26 00:21 | 47.45257 | 8.55844 | 1399 ft | 0 kts | 277° |
| 2026-04-26 00:23 | 47.45259 | 8.55825 | 1398 ft | 3 kts | 276° |
| 2026-04-26 00:24 | 47.45262 | 8.55774 | 1397 ft | 5 kts | 275° |
| 2026-04-26 00:24 | 47.45264 | 8.55743 | 1396 ft | 6 kts | 276° |
| 2026-04-26 00:24 | 47.45264 | 8.55740 | 1396 ft | 0 kts | 276° |
| 2026-04-26 00:24 | 47.45268 | 8.55687 | 1394 ft | 10 kts | 276° |
| 2026-04-26 00:25 | 47.45296 | 8.55563 | 1392 ft | 13 kts | 325° |
| 2026-04-26 00:25 | 47.45384 | 8.55503 | 1391 ft | 14 kts | 335° |
| 2026-04-26 00:25 | 47.45481 | 8.55437 | 1390 ft | 16 kts | 335° |
| 2026-04-26 00:25 | 47.45589 | 8.55362 | 1387 ft | 17 kts | 334° |
| 2026-04-26 00:26 | 47.45711 | 8.55298 | 1385 ft | 19 kts | 343° |
| 2026-04-26 00:26 | 47.45838 | 8.55211 | 1382 ft | 20 kts | 335° |
| 2026-04-26 00:26 | 47.45974 | 8.55119 | 1381 ft | 21 kts | 335° |
| 2026-04-26 00:26 | 47.46111 | 8.55024 | 1381 ft | 21 kts | 335° |
| 2026-04-26 00:27 | 47.46247 | 8.54929 | 1380 ft | 22 kts | 335° |
| 2026-04-26 00:27 | 47.46392 | 8.54830 | 1378 ft | 23 kts | 335° |
| 2026-04-26 00:27 | 47.46538 | 8.54729 | 1378 ft | 23 kts | 335° |
| 2026-04-26 00:27 | 47.46664 | 8.54641 | 1378 ft | 12 kts | 335° |
| 2026-04-26 00:28 | 47.46733 | 8.54594 | 1378 ft | 10 kts | 334° |
| 2026-04-26 00:28 | 47.46787 | 8.54512 | 1378 ft | 11 kts | 304° |
| 2026-04-26 00:28 | 47.46841 | 8.54402 | 1377 ft | 14 kts | 315° |
| 2026-04-26 00:28 | 47.46927 | 8.54323 | 1377 ft | 14 kts | 324° |
| 2026-04-26 00:29 | 47.47006 | 8.54222 | 1376 ft | 15 kts | 308° |
| 2026-04-26 00:29 | 47.47017 | 8.54070 | 1375 ft | 15 kts | 243° |
| 2026-04-26 00:29 | 47.46993 | 8.54004 | 1375 ft | 4 kts | 230° |
| 2026-04-26 00:29 | 47.46967 | 8.54002 | 1375 ft | 4 kts | 153° |
| 2026-04-26 00:30 | 47.46919 | 8.54040 | 1375 ft | 13 kts | 152° |
| 2026-04-26 00:30 | 47.46612 | 8.54257 | 1377 ft | 86 kts | 156° |
| 2026-04-26 00:30 | 47.45867 | 8.54762 | 1379 ft | 148 kts | 155° |
| 2026-04-26 00:30 | 47.44839 | 8.55467 | 1702 ft | 171 kts | 155° |
| 2026-04-26 00:31 | 47.43739 | 8.56188 | 2366 ft | 179 kts | 157° |
| 2026-04-26 00:31 | 47.42575 | 8.56836 | 3162 ft | 180 kts | 160° |
| 2026-04-26 00:31 | 47.41377 | 8.57355 | 3901 ft | 185 kts | 163° |
| 2026-04-26 00:31 | 47.40130 | 8.57687 | 4651 ft | 188 kts | 185° |
| 2026-04-26 00:32 | 47.38969 | 8.56862 | 5357 ft | 195 kts | 225° |
| 2026-04-26 00:32 | 47.38014 | 8.55398 | 6139 ft | 201 kts | 227° |
| 2026-04-26 00:32 | 47.35907 | 8.52120 | 6869 ft | 247 kts | 227° |
| 2026-04-26 00:33 | 47.34629 | 8.50528 | 6920 ft | 233 kts | 214° |
| 2026-04-26 00:33 | 47.33264 | 8.49393 | 6955 ft | 228 kts | 206° |
| 2026-04-26 00:33 | 47.31659 | 8.48360 | 7150 ft | 269 kts | 202° |
| 2026-04-26 00:33 | 47.29826 | 8.47378 | 7645 ft | 291 kts | 199° |
| 2026-04-26 00:34 | 47.27918 | 8.46458 | 8534 ft | 296 kts | 198° |
| 2026-04-26 00:34 | 47.25936 | 8.45627 | 9569 ft | 297 kts | 188° |
| 2026-04-26 00:34 | 47.23923 | 8.45986 | 10535 ft | 298 kts | 158° |
| 2026-04-26 00:34 | 47.22035 | 8.47286 | 11319 ft | 306 kts | 154° |
| 2026-04-26 00:35 | 47.20106 | 8.48697 | 11929 ft | 318 kts | 153° |
| 2026-04-26 00:35 | 47.18103 | 8.50176 | 12578 ft | 331 kts | 153° |
| 2026-04-26 00:35 | 47.15929 | 8.51397 | 13327 ft | 340 kts | 171° |
| 2026-04-26 00:35 | 47.13599 | 8.51798 | 14104 ft | 345 kts | 174° |
| 2026-04-26 00:36 | 47.11177 | 8.52157 | 14896 ft | 350 kts | 175° |
| 2026-04-26 00:36 | 47.08758 | 8.52511 | 15705 ft | 355 kts | 175° |
| 2026-04-26 00:36 | 47.06297 | 8.52868 | 16426 ft | 360 kts | 175° |
| 2026-04-26 00:36 | 47.03793 | 8.53231 | 17130 ft | 366 kts | 175° |
| 2026-04-26 00:37 | 47.01251 | 8.53598 | 17798 ft | 373 kts | 175° |
| 2026-04-26 00:37 | 46.98672 | 8.53970 | 18458 ft | 379 kts | 175° |
| 2026-04-26 00:37 | 46.96038 | 8.54350 | 19051 ft | 383 kts | 175° |
| 2026-04-26 00:37 | 46.93366 | 8.54735 | 19126 ft | 399 kts | 175° |
| 2026-04-26 00:38 | 46.90536 | 8.55142 | 19106 ft | 407 kts | 175° |
| 2026-04-26 00:38 | 46.87749 | 8.55543 | 19146 ft | 407 kts | 175° |
| 2026-04-26 00:38 | 46.84924 | 8.55949 | 19167 ft | 406 kts | 175° |
| 2026-04-26 00:38 | 46.82099 | 8.56354 | 19169 ft | 406 kts | 175° |
| 2026-04-26 00:39 | 46.79313 | 8.56753 | 19186 ft | 406 kts | 175° |
| 2026-04-26 00:39 | 46.76490 | 8.57158 | 19200 ft | 406 kts | 175° |
| 2026-04-26 00:39 | 46.73698 | 8.57557 | 19210 ft | 407 kts | 175° |
| 2026-04-26 00:39 | 46.71797 | 8.57828 | 19210 ft | 407 kts | 175° |
| 2026-04-26 00:40 | 46.68056 | 8.58362 | 19208 ft | 406 kts | 175° |
| 2026-04-26 00:40 | 46.65253 | 8.58762 | 19197 ft | 408 kts | 175° |
| 2026-04-26 00:40 | 46.62431 | 8.59164 | 19197 ft | 407 kts | 175° |
| 2026-04-26 00:40 | 46.59632 | 8.59562 | 19200 ft | 407 kts | 175° |
| 2026-04-26 00:41 | 46.56812 | 8.59963 | 19201 ft | 407 kts | 175° |
| 2026-04-26 00:41 | 46.53999 | 8.60362 | 19194 ft | 406 kts | 175° |
| 2026-04-26 00:41 | 46.51191 | 8.60759 | 19197 ft | 408 kts | 175° |
| 2026-04-26 00:41 | 46.48384 | 8.61157 | 19190 ft | 407 kts | 175° |
| 2026-04-26 00:42 | 46.45538 | 8.61560 | 19190 ft | 407 kts | 175° |
| 2026-04-26 00:42 | 46.42735 | 8.61814 | 19203 ft | 406 kts | 181° |
| 2026-04-26 00:42 | 46.39909 | 8.61774 | 19195 ft | 406 kts | 181° |
| 2026-04-26 00:42 | 46.37098 | 8.61728 | 19205 ft | 406 kts | 181° |
| 2026-04-26 00:43 | 46.34243 | 8.61682 | 19207 ft | 407 kts | 181° |
| 2026-04-26 00:43 | 46.31432 | 8.61637 | 19193 ft | 407 kts | 181° |
| 2026-04-26 00:43 | 46.28597 | 8.61591 | 19192 ft | 407 kts | 181° |
| 2026-04-26 00:43 | 46.25741 | 8.61546 | 19188 ft | 407 kts | 181° |
| 2026-04-26 00:44 | 46.22916 | 8.61500 | 19192 ft | 407 kts | 181° |
| 2026-04-26 00:44 | 46.20116 | 8.61455 | 19173 ft | 407 kts | 181° |
| 2026-04-26 00:44 | 46.17287 | 8.61410 | 19165 ft | 399 kts | 181° |
| 2026-04-26 00:44 | 46.14526 | 8.61366 | 19164 ft | 395 kts | 181° |
| 2026-04-26 00:45 | 46.11812 | 8.61323 | 19154 ft | 393 kts | 182° |
| 2026-04-26 00:45 | 46.09993 | 8.61294 | 19158 ft | 385 kts | 182° |
| 2026-04-26 00:45 | 46.06534 | 8.61239 | 18884 ft | 364 kts | 181° |
| 2026-04-26 00:45 | 46.04036 | 8.61199 | 18498 ft | 356 kts | 182° |
| 2026-04-26 00:46 | 46.01593 | 8.61160 | 18104 ft | 349 kts | 181° |
| 2026-04-26 00:46 | 45.99181 | 8.61121 | 17744 ft | 346 kts | 181° |
| 2026-04-26 00:46 | 45.96755 | 8.61083 | 17324 ft | 345 kts | 181° |
| 2026-04-26 00:46 | 45.94360 | 8.61045 | 16975 ft | 344 kts | 181° |
| 2026-04-26 00:47 | 45.92009 | 8.61008 | 16583 ft | 342 kts | 181° |
| 2026-04-26 00:47 | 45.89691 | 8.61557 | 16241 ft | 338 kts | 155° |
| 2026-04-26 00:47 | 45.87738 | 8.63366 | 15791 ft | 333 kts | 140° |
| 2026-04-26 00:47 | 45.85944 | 8.65409 | 15431 ft | 327 kts | 140° |
| 2026-04-26 00:48 | 45.84181 | 8.67439 | 15061 ft | 325 kts | 140° |
| 2026-04-26 00:48 | 45.82416 | 8.69478 | 14686 ft | 322 kts | 139° |
| 2026-04-26 00:48 | 45.80686 | 8.71479 | 14357 ft | 321 kts | 139° |
| 2026-04-26 00:48 | 45.78946 | 8.73492 | 13959 ft | 318 kts | 140° |
| 2026-04-26 00:49 | 45.77253 | 8.75448 | 13609 ft | 313 kts | 139° |
| 2026-04-26 00:49 | 45.75446 | 8.77152 | 13287 ft | 309 kts | 150° |
| 2026-04-26 00:49 | 45.73583 | 8.78591 | 13001 ft | 302 kts | 150° |
| 2026-04-26 00:49 | 45.71745 | 8.80008 | 12662 ft | 295 kts | 150° |
| 2026-04-26 00:50 | 45.69974 | 8.81371 | 12332 ft | 289 kts | 150° |
| 2026-04-26 00:50 | 45.68220 | 8.82720 | 12009 ft | 284 kts | 150° |
| 2026-04-26 00:50 | 45.66490 | 8.84050 | 11697 ft | 281 kts | 150° |
| 2026-04-26 00:50 | 45.64764 | 8.85375 | 11388 ft | 281 kts | 150° |
| 2026-04-26 00:51 | 45.63044 | 8.86695 | 11077 ft | 281 kts | 150° |
| 2026-04-26 00:51 | 45.61266 | 8.87783 | 10768 ft | 282 kts | 166° |
| 2026-04-26 00:51 | 45.59347 | 8.88335 | 10509 ft | 281 kts | 168° |
| 2026-04-26 00:51 | 45.57438 | 8.88862 | 10201 ft | 281 kts | 168° |
| 2026-04-26 00:52 | 45.55517 | 8.89387 | 9891 ft | 279 kts | 168° |
| 2026-04-26 00:52 | 45.53609 | 8.89907 | 9571 ft | 276 kts | 168° |
| 2026-04-26 00:52 | 45.51733 | 8.90418 | 9273 ft | 275 kts | 168° |
| 2026-04-26 00:52 | 45.49872 | 8.90924 | 8962 ft | 271 kts | 168° |
| 2026-04-26 00:53 | 45.48030 | 8.91425 | 8545 ft | 268 kts | 168° |
| 2026-04-26 00:53 | 45.46795 | 8.91761 | 8187 ft | 264 kts | 168° |
| 2026-04-26 00:53 | 45.45032 | 8.92240 | 7788 ft | 257 kts | 168° |
| 2026-04-26 00:53 | 45.43252 | 8.92724 | 7335 ft | 261 kts | 168° |
| 2026-04-26 00:54 | 45.41475 | 8.93173 | 6860 ft | 264 kts | 176° |
| 2026-04-26 00:54 | 45.39720 | 8.92578 | 6422 ft | 262 kts | 214° |
| 2026-04-26 00:54 | 45.38622 | 8.90697 | 6305 ft | 235 kts | 254° |
| 2026-04-26 00:54 | 45.38217 | 8.88580 | 6171 ft | 217 kts | 259° |
| 2026-04-26 00:55 | 45.37888 | 8.86507 | 5969 ft | 213 kts | 261° |
| 2026-04-26 00:55 | 45.37583 | 8.84454 | 5741 ft | 211 kts | 261° |
| 2026-04-26 00:55 | 45.37328 | 8.82419 | 5507 ft | 209 kts | 275° |
| 2026-04-26 00:55 | 45.37851 | 8.80589 | 5338 ft | 202 kts | 319° |
| 2026-04-26 00:56 | 45.39084 | 8.79769 | 5057 ft | 199 kts | 349° |
| 2026-04-26 00:56 | 45.40439 | 8.79449 | 4785 ft | 197 kts | 352° |
| 2026-04-26 00:56 | 45.41790 | 8.79132 | 4505 ft | 196 kts | 351° |
| 2026-04-26 00:56 | 45.43116 | 8.78795 | 4227 ft | 195 kts | 350° |
| 2026-04-26 00:57 | 45.44442 | 8.78444 | 3948 ft | 194 kts | 350° |
| 2026-04-26 00:57 | 45.45772 | 8.78086 | 3668 ft | 193 kts | 350° |
| 2026-04-26 00:57 | 45.47086 | 8.77729 | 3403 ft | 192 kts | 350° |
| 2026-04-26 00:57 | 45.48370 | 8.77377 | 3304 ft | 178 kts | 350° |
| 2026-04-26 00:58 | 45.49562 | 8.77049 | 3104 ft | 171 kts | 350° |
| 2026-04-26 00:58 | 45.50695 | 8.76736 | 2937 ft | 161 kts | 350° |
| 2026-04-26 00:58 | 45.51763 | 8.76441 | 2711 ft | 151 kts | 350° |
| 2026-04-26 00:58 | 45.52785 | 8.76164 | 2495 ft | 149 kts | 349° |
| 2026-04-26 00:59 | 45.53824 | 8.75881 | 2293 ft | 151 kts | 349° |
| 2026-04-26 00:59 | 45.54852 | 8.75598 | 2089 ft | 153 kts | 350° |
| 2026-04-26 00:59 | 45.55917 | 8.75306 | 1875 ft | 154 kts | 351° |
| 2026-04-26 00:59 | 45.56970 | 8.75023 | 1662 ft | 155 kts | 351° |
| 2026-04-26 01:00 | 45.58027 | 8.74765 | 1417 ft | 152 kts | 351° |
| 2026-04-26 01:00 | 45.59031 | 8.74486 | 1191 ft | 144 kts | 348° |
| 2026-04-26 01:00 | 45.60017 | 8.74194 | 1033 ft | 145 kts | 349° |
| 2026-04-26 01:00 | 45.61006 | 8.73913 | 861 ft | 145 kts | 349° |
| 2026-04-26 01:01 | 45.61990 | 8.73636 | 717 ft | 141 kts | 349° |
| 2026-04-26 01:01 | 45.62859 | 8.73397 | 721 ft | 108 kts | 348° |
| 2026-04-26 01:01 | 45.63334 | 8.73267 | 731 ft | 47 kts | 349° |
| 2026-04-26 01:01 | 45.63591 | 8.73183 | 738 ft | 30 kts | 333° |
| 2026-04-26 01:02 | 45.63699 | 8.73093 | 742 ft | 11 kts | 322° |
| 2026-04-26 01:02 | 45.63752 | 8.73025 | 744 ft | 9 kts | 316° |
| 2026-04-26 01:02 | 45.63793 | 8.72967 | 745 ft | 8 kts | 313° |
| 2026-04-26 01:02 | 45.63826 | 8.72899 | 746 ft | 8 kts | 304° |
| 2026-04-26 01:03 | 45.63858 | 8.72831 | 747 ft | 8 kts | 304° |
| 2026-04-26 01:03 | 45.63893 | 8.72757 | 749 ft | 9 kts | 304° |
| 2026-04-26 01:03 | 45.63929 | 8.72672 | 751 ft | 10 kts | 287° |
| 2026-04-26 01:03 | 45.63886 | 8.72584 | 750 ft | 13 kts | 180° |
| 2026-04-26 01:04 | 45.63781 | 8.72613 | 747 ft | 18 kts | 169° |
| 2026-04-26 01:04 | 45.63638 | 8.72653 | 743 ft | 22 kts | 169° |
| 2026-04-26 01:04 | 45.63477 | 8.72697 | 739 ft | 24 kts | 169° |
| 2026-04-26 01:04 | 45.63305 | 8.72745 | 737 ft | 25 kts | 169° |
| 2026-04-26 01:05 | 45.63123 | 8.72795 | 733 ft | 27 kts | 169° |
| 2026-04-26 01:05 | 45.62928 | 8.72849 | 728 ft | 29 kts | 169° |
| 2026-04-26 01:05 | 45.62720 | 8.72906 | 725 ft | 29 kts | 169° |
| 2026-04-26 01:05 | 45.62574 | 8.72944 | 723 ft | 20 kts | 177° |
| 2026-04-26 01:06 | 45.62446 | 8.72861 | 721 ft | 20 kts | 214° |
| 2026-04-26 01:06 | 45.62328 | 8.72748 | 718 ft | 16 kts | 214° |
| 2026-04-26 01:06 | 45.62265 | 8.72620 | 720 ft | 15 kts | 258° |
| 2026-04-26 01:06 | 45.62246 | 8.72479 | 724 ft | 12 kts | 259° |
| 2026-04-26 01:07 | 45.62231 | 8.72367 | 727 ft | 11 kts | 259° |
| 2026-04-26 01:07 | 45.62215 | 8.72251 | 729 ft | 12 kts | 260° |
| 2026-04-26 01:07 | 45.62198 | 8.72127 | 731 ft | 13 kts | 258° |
| 2026-04-26 01:07 | 45.62184 | 8.72003 | 733 ft | 11 kts | 278° |
| 2026-04-26 01:08 | 45.62243 | 8.71944 | 735 ft | 11 kts | 349° |
| 2026-04-26 01:08 | 45.62328 | 8.71921 | 736 ft | 12 kts | 349° |
| 2026-04-26 01:08 | 45.62419 | 8.71897 | 738 ft | 13 kts | 349° |
| 2026-04-26 01:08 | 45.62513 | 8.71870 | 739 ft | 13 kts | 349° |
| 2026-04-26 01:09 | 45.62609 | 8.71844 | 739 ft | 13 kts | 348° |
| 2026-04-26 01:09 | 45.62645 | 8.71776 | 741 ft | 8 kts | 259° |
| 2026-04-26 01:09 | 45.62634 | 8.71699 | 742 ft | 7 kts | 259° |
| 2026-04-26 01:09 | 45.62626 | 8.71660 | 743 ft | 3 kts | 233° |
| 2026-04-26 01:10 | 45.62602 | 8.71658 | 743 ft | 4 kts | 166° |
| 2026-04-26 01:10 | 45.62569 | 8.71667 | 743 ft | 5 kts | 169° |
| 2026-04-26 01:10 | 45.62544 | 8.71674 | 743 ft | 0 kts | 169° |